Time;durP1;ratioP1;P1;durP2;ratioP2;P2;SDS_P1;SDS_P2;PMS_P1;PMS_P2;Temp;Humidity;BMP_temperature;BMP_pressure;BME280_temperature;BME280_humidity;BME280_pressure;Samples;Min_cycle;Max_cycle;Signal;HPM_P1;HPM_P2
2022/11/02 00:00:51;;;;;;;11.88;10.85;;;9.90;99.90;;;;;;4216920;28;20040;-86
2022/11/02 00:03:11;;;;;;;11.55;10.60;;;10.10;99.90;;;;;;4234560;28;20081;-86
2022/11/02 00:05:32;;;;;;;9.40;8.90;;;10.20;99.90;;;;;;4235918;28;20046;-86
2022/11/02 00:07:53;;;;;;;11.63;10.50;;;10.30;99.90;;;;;;4221500;28;20062;-86
2022/11/02 00:10:13;;;;;;;11.93;10.55;;;10.20;99.90;;;;;;4224939;28;20078;-86
2022/11/02 00:12:32;;;;;;;9.95;9.02;;;10.20;99.90;;;;;;4226158;28;20097;-86
2022/11/02 00:14:52;;;;;;;8.55;8.05;;;10.10;99.90;;;;;;4229189;28;20230;-86
2022/11/02 00:17:12;;;;;;;9.10;8.68;;;9.80;99.90;;;;;;4221367;28;20051;-86
2022/11/02 00:19:33;;;;;;;9.82;9.00;;;9.60;99.90;;;;;;4222034;28;20131;-86
2022/11/02 00:21:54;;;;;;;10.15;9.52;;;9.50;99.90;;;;;;4225419;28;20088;-86
2022/11/02 00:24:14;;;;;;;10.48;9.88;;;9.30;99.90;;;;;;4220238;28;20047;-86
2022/11/02 00:26:35;;;;;;;9.93;9.32;;;9.30;99.90;;;;;;4224222;28;20357;-87
2022/11/02 00:28:56;;;;;;;8.88;8.45;;;9.20;99.90;;;;;;4218956;28;20048;-86
2022/11/02 00:31:16;;;;;;;9.05;8.45;;;9.20;99.90;;;;;;4232558;28;20043;-86
2022/11/02 00:33:36;;;;;;;9.95;9.30;;;9.20;99.90;;;;;;4222048;28;20051;-86
2022/11/02 00:35:56;;;;;;;11.38;10.43;;;9.30;99.90;;;;;;4227150;28;20054;-86
2022/11/02 00:38:16;;;;;;;26.83;10.85;;;9.30;99.90;;;;;;4224859;28;20050;-86
2022/11/02 00:40:36;;;;;;;11.80;10.73;;;9.30;99.90;;;;;;4228823;28;20365;-86
2022/11/02 00:42:56;;;;;;;12.05;10.65;;;9.30;99.90;;;;;;4236190;28;20047;-86
2022/11/02 00:45:16;;;;;;;10.65;9.95;;;9.30;99.90;;;;;;4229423;28;20081;-86
2022/11/02 00:47:36;;;;;;;11.07;10.07;;;9.30;99.90;;;;;;4231724;28;20042;-86
2022/11/02 00:49:56;;;;;;;10.93;10.13;;;9.30;99.90;;;;;;4214403;28;20051;-86
2022/11/02 00:52:16;;;;;;;11.27;10.25;;;9.30;99.90;;;;;;4218018;28;20111;-86
2022/11/02 00:54:36;;;;;;;11.15;10.48;;;9.30;99.90;;;;;;4236628;28;20106;-86
2022/11/02 00:56:56;;;;;;;11.85;10.75;;;9.40;99.90;;;;;;4237253;28;20104;-86
2022/11/02 00:59:16;;;;;;;11.73;10.30;;;9.20;99.90;;;;;;4236586;28;20057;-87
2022/11/02 01:01:36;;;;;;;10.73;9.82;;;9.20;99.90;;;;;;4236648;28;20081;-86
2022/11/02 01:03:56;;;;;;;10.88;9.90;;;9.20;99.90;;;;;;4217555;28;20082;-86
2022/11/02 01:06:16;;;;;;;9.73;9.13;;;9.10;99.90;;;;;;4233936;28;20111;-86
2022/11/02 01:08:36;;;;;;;10.73;9.88;;;9.10;99.90;;;;;;4224625;28;20047;-86
2022/11/02 01:10:55;;;;;;;11.15;10.18;;;9.20;99.90;;;;;;4227597;28;20047;-86
2022/11/02 01:13:15;;;;;;;13.18;11.43;;;9.20;99.90;;;;;;4238703;28;20051;-86
2022/11/02 01:15:36;;;;;;;13.30;11.82;;;9.20;99.90;;;;;;4224133;28;20305;-86
2022/11/02 01:17:56;;;;;;;10.35;9.75;;;9.10;99.90;;;;;;4221890;28;20322;-86
2022/11/02 01:20:16;;;;;;;10.25;9.45;;;9.20;99.90;;;;;;4234823;28;20054;-86
2022/11/02 01:22:36;;;;;;;11.93;11.13;;;9.30;99.90;;;;;;4231997;28;20074;-86
2022/11/02 01:24:55;;;;;;;10.60;9.45;;;9.40;99.90;;;;;;4214283;28;20069;-86
2022/11/02 01:27:16;;;;;;;10.07;9.27;;;9.20;99.90;;;;;;4222275;28;20264;-86
2022/11/02 01:29:35;;;;;;;10.57;9.45;;;9.20;99.90;;;;;;4235717;28;20066;-86
2022/11/02 01:31:55;;;;;;;11.52;10.57;;;9.20;99.90;;;;;;4221804;28;20046;-86
2022/11/02 01:34:14;;;;;;;9.90;9.30;;;9.20;99.90;;;;;;4221099;28;20121;-86
2022/11/02 01:36:34;;;;;;;8.35;8.05;;;9.10;99.90;;;;;;4231798;28;20083;-86
2022/11/02 01:38:54;;;;;;;8.00;7.40;;;9.00;99.90;;;;;;4233888;28;20042;-86
2022/11/02 01:41:16;;;;;;;10.02;6.80;;;9.00;99.90;;;;;;4216611;28;20056;-86
2022/11/02 01:43:36;;;;;;;6.32;6.03;;;9.00;99.90;;;;;;4238408;28;20396;-86
2022/11/02 01:46:11;;;;;;;8.88;8.38;;;9.00;99.90;;;;;;4240552;28;20066;-86
2022/11/02 01:48:35;;;;;;;9.10;8.48;;;8.90;99.90;;;;;;4211523;28;20306;-86
2022/11/02 01:50:56;;;;;;;7.20;6.85;;;8.90;99.90;;;;;;4233940;28;20080;-86
2022/11/02 01:53:16;;;;;;;8.88;7.50;;;8.80;99.90;;;;;;4218706;28;20085;-86
2022/11/02 01:55:36;;;;;;;10.15;9.45;;;8.90;99.90;;;;;;4230958;28;20097;-86
2022/11/02 01:58:00;;;;;;;8.90;8.30;;;8.90;99.90;;;;;;4234923;28;20062;-86
2022/11/02 02:00:20;;;;;;;16.05;8.02;;;8.90;99.90;;;;;;4239061;28;20251;-86
2022/11/02 02:03:03;;;;;;;9.75;8.90;;;8.90;99.90;;;;;;4225393;28;20118;-86
2022/11/02 02:05:24;;;;;;;8.35;7.72;;;8.90;99.90;;;;;;4222154;28;20104;-86
2022/11/02 02:07:46;;;;;;;7.88;7.07;;;8.80;99.90;;;;;;4216683;28;20082;-86
2022/11/02 02:10:07;;;;;;;9.52;7.90;;;8.80;99.90;;;;;;4232114;28;20051;-86
2022/11/02 02:12:28;;;;;;;8.38;7.70;;;8.80;99.90;;;;;;4234470;28;20046;-86
2022/11/02 02:14:49;;;;;;;8.05;7.55;;;8.70;99.90;;;;;;4221783;28;20063;-86
2022/11/02 02:17:27;;;;;;;13.00;7.75;;;8.80;99.90;;;;;;4239233;28;20057;-86
2022/11/02 02:20:17;;;;;;;8.18;7.47;;;8.90;99.90;;;;;;4224546;28;20071;-86
2022/11/02 02:22:56;;;;;;;9.25;8.00;;;8.80;99.90;;;;;;4223479;28;20047;-86
2022/11/02 02:25:37;;;;;;;8.13;7.80;;;8.70;99.90;;;;;;4217741;28;20361;-86
2022/11/02 02:28:41;;;;;;;8.93;8.00;;;8.70;99.90;;;;;;4233263;28;20173;-86
2022/11/02 02:31:16;;;;;;;9.77;9.00;;;8.60;99.90;;;;;;4212620;28;20066;-86
2022/11/02 02:33:49;;;;;;;9.75;8.98;;;8.40;99.90;;;;;;4225200;28;20067;-86
2022/11/02 02:36:18;;;;;;;;;;;8.40;99.90;;;;;;4239966;28;20043;-86
2022/11/02 02:38:48;;;;;;;8.40;8.05;;;8.50;99.90;;;;;;4221784;28;19960;-86
2022/11/02 02:41:34;;;;;;;8.95;8.32;;;8.50;99.90;;;;;;4214439;28;20113;-86
2022/11/02 02:43:56;;;;;;;10.65;9.90;;;8.40;99.90;;;;;;4232404;28;20077;-86
2022/11/02 02:46:28;;;;;;;9.40;8.43;;;8.30;99.90;;;;;;4215491;28;20109;-85
2022/11/02 02:48:51;;;;;;;9.93;9.15;;;8.30;99.90;;;;;;4210897;28;20150;-86
2022/11/02 02:51:31;;;;;;;9.88;9.07;;;8.20;99.90;;;;;;4221412;28;20126;-86
2022/11/02 02:53:59;;;;;;;9.25;8.55;;;8.20;99.90;;;;;;4224838;28;20078;-86
2022/11/02 02:56:24;;;;;;;7.65;7.25;;;8.10;99.90;;;;;;4228874;28;20043;-86
2022/11/02 02:58:52;;;;;;;6.93;6.53;;;8.00;99.90;;;;;;4215840;28;20067;-86
2022/11/02 03:01:14;;;;;;;8.40;7.97;;;7.90;99.90;;;;;;4219479;28;20051;-86
2022/11/02 03:03:34;;;;;;;8.77;8.38;;;8.00;99.90;;;;;;4221284;28;20047;-86
2022/11/02 03:06:00;;;;;;;9.25;8.43;;;8.00;99.90;;;;;;4236368;28;20050;-86
2022/11/02 03:08:20;;;;;;;9.82;8.45;;;7.90;99.90;;;;;;4239616;28;20066;-86
2022/11/02 03:11:09;;;;;;;8.65;7.97;;;7.90;99.90;;;;;;4237235;28;20042;-86
2022/11/02 03:13:32;;;;;;;7.70;7.30;;;7.90;99.90;;;;;;4217641;28;20127;-86
2022/11/02 03:15:58;;;;;;;9.02;8.10;;;7.90;99.90;;;;;;4218157;28;20416;-86
2022/11/02 03:18:33;;;;;;;8.52;8.07;;;7.80;99.90;;;;;;4229352;28;20116;-86
2022/11/02 03:21:07;;;;;;;9.02;8.45;;;7.80;99.90;;;;;;4216524;28;20040;-86
2022/11/02 03:23:44;;;;;;;9.00;8.40;;;7.70;99.90;;;;;;4222301;28;20602;-86
2022/11/02 03:26:10;;;;;;;7.80;7.15;;;7.60;99.90;;;;;;4216657;28;20044;-86
2022/11/02 03:28:55;;;;;;;9.00;8.32;;;7.60;99.90;;;;;;4235226;28;20078;-85
2022/11/02 03:31:47;;;;;;;9.32;8.48;;;7.70;99.90;;;;;;4217460;28;20047;-86
2022/11/02 03:34:13;;;;;;;9.18;8.52;;;7.70;99.90;;;;;;4161678;28;20065;-86
2022/11/02 03:36:44;;;;;;;9.68;8.73;;;7.80;99.90;;;;;;4224636;28;20102;-86
2022/11/02 03:39:10;;;;;;;9.93;9.00;;;7.70;99.90;;;;;;4220753;28;20322;-86
2022/11/02 03:41:31;;;;;;;9.20;8.32;;;7.80;99.90;;;;;;4208652;28;20108;-86
2022/11/02 03:43:58;;;;;;;10.18;9.18;;;7.90;99.90;;;;;;4226176;28;20076;-86
2022/11/02 03:46:18;;;;;;;11.63;9.25;;;7.90;99.90;;;;;;4221884;28;20043;-86
2022/11/02 03:48:44;;;;;;;8.82;7.97;;;8.00;99.90;;;;;;4217285;28;20052;-86
2022/11/02 03:51:09;;;;;;;9.82;9.10;;;8.00;99.90;;;;;;4214175;28;20078;-86
2022/11/02 03:53:43;;;;;;;9.13;8.52;;;7.90;99.90;;;;;;4225829;28;20055;-85
2022/11/02 03:56:11;;;;;;;9.68;9.07;;;7.90;99.90;;;;;;4220332;28;20058;-86
2022/11/02 03:58:30;;;;;;;8.70;8.20;;;7.80;99.90;;;;;;4224352;28;20054;-86
2022/11/02 04:00:58;;;;;;;9.88;8.88;;;7.80;99.90;;;;;;4220702;28;20362;-86
2022/11/02 04:03:20;;;;;;;8.77;8.38;;;7.80;99.90;;;;;;4214463;28;20060;-85
2022/11/02 04:05:39;;;;;;;8.88;8.23;;;7.90;99.90;;;;;;4232065;28;20089;-86
2022/11/02 04:14:36;;;;;;;9.35;8.95;;;7.90;99.90;;;;;;4224903;28;20046;-86
2022/11/02 04:15:55;;;;;;;9.10;8.38;;;7.80;99.90;;;;;;4229685;28;20059;-86
2022/11/02 04:20:53;;;;;;;8.48;7.78;;;7.70;99.90;;;;;;4230879;28;20038;-85
2022/11/02 04:25:54;;;;;;;7.88;7.53;;;7.90;99.90;;;;;;4235075;28;20046;-86
2022/11/02 04:28:14;;;;;;;7.53;7.22;;;7.90;99.90;;;;;;4223676;28;20051;-85
2022/11/02 04:30:34;;;;;;;8.20;7.55;;;7.90;99.90;;;;;;4236949;28;20043;-86
2022/11/02 04:35:34;;;;;;;9.25;8.65;;;7.60;99.90;;;;;;4235314;28;20104;-85
2022/11/02 04:40:31;;;;;;;8.00;7.70;;;7.60;99.90;;;;;;4236727;28;20042;-86
2022/11/02 04:42:51;;;;;;;8.25;7.43;;;7.70;99.90;;;;;;4226197;28;20062;-86
2022/11/02 04:45:11;;;;;;;8.90;8.30;;;7.70;99.90;;;;;;4229435;28;20366;-85
2022/11/02 04:47:31;;;;;;;6.40;5.82;;;7.80;99.90;;;;;;4240251;28;20102;-85
2022/11/02 04:49:50;;;;;;;6.53;6.43;;;7.80;99.90;;;;;;4226148;28;20381;-85
2022/11/02 04:52:10;;;;;;;6.43;6.18;;;7.90;99.90;;;;;;4235510;28;20043;-86
2022/11/02 04:54:30;;;;;;;7.82;7.15;;;7.90;99.90;;;;;;4224272;28;20051;-86
2022/11/02 04:56:49;;;;;;;9.98;7.32;;;7.90;99.90;;;;;;4218869;28;20112;-85
2022/11/02 04:59:09;;;;;;;7.25;7.05;;;7.80;99.90;;;;;;4237379;28;20084;-85
2022/11/02 05:01:29;;;;;;;8.73;8.20;;;7.70;99.90;;;;;;4241469;28;20235;-85
2022/11/02 05:03:52;;;;;;;11.88;7.00;;;7.50;99.90;;;;;;4225775;28;20377;-86
2022/11/02 05:06:11;;;;;;;9.75;9.00;;;7.50;99.90;;;;;;4237372;28;20038;-86
2022/11/02 05:08:32;;;;;;;9.45;8.63;;;7.30;99.90;;;;;;4234551;28;20055;-86
2022/11/02 05:10:55;;;;;;;11.95;9.93;;;7.30;99.90;;;;;;4217513;28;20044;-86
2022/11/02 05:13:15;;;;;;;7.85;7.50;;;7.30;99.90;;;;;;4222738;28;20047;-86
2022/11/02 05:15:38;;;;;;;8.75;7.95;;;7.40;99.90;;;;;;4236438;28;20092;-85
2022/11/02 05:17:58;;;;;;;;;;;7.40;99.90;;;;;;4241744;28;20050;-86
2022/11/02 05:20:18;;;;;;;8.90;8.18;;;7.30;99.90;;;;;;4239441;28;20248;-85
2022/11/02 05:22:41;;;;;;;8.65;8.15;;;7.20;99.90;;;;;;4224655;28;20050;-86
2022/11/02 05:25:01;;;;;;;8.60;8.23;;;7.10;99.90;;;;;;4234234;28;20119;-86
2022/11/02 05:27:21;;;;;;;7.85;7.45;;;7.00;99.90;;;;;;4219364;28;20694;-86
2022/11/02 05:29:40;;;;;;;8.20;7.75;;;7.00;99.90;;;;;;4224997;28;20073;-86
2022/11/02 05:32:00;;;;;;;8.50;7.93;;;7.10;99.90;;;;;;4238895;28;20054;-86
2022/11/02 05:34:20;;;;;;;8.80;8.00;;;7.00;99.90;;;;;;4223807;28;20258;-86
2022/11/02 05:36:40;;;;;;;8.63;8.15;;;6.90;99.90;;;;;;4211365;28;20047;-85
2022/11/02 05:39:00;;;;;;;7.43;7.05;;;6.90;99.90;;;;;;4222780;28;20549;-86
2022/11/02 05:41:21;;;;;;;6.65;6.40;;;6.90;99.90;;;;;;4230409;28;20043;-86
2022/11/02 05:43:41;;;;;;;7.85;7.43;;;7.00;99.90;;;;;;4211956;28;20078;-86
2022/11/02 05:46:02;;;;;;;10.15;9.45;;;7.00;99.90;;;;;;4227105;28;20051;-86
2022/11/02 05:48:23;;;;;;;10.15;9.25;;;6.90;99.90;;;;;;4219212;28;20118;-86
2022/11/02 05:50:43;;;;;;;7.72;7.50;;;6.90;99.90;;;;;;4230153;28;20107;-86
2022/11/02 05:53:03;;;;;;;10.02;9.27;;;6.90;99.90;;;;;;4224831;28;20034;-86
2022/11/02 05:55:23;;;;;;;7.68;7.38;;;6.90;99.90;;;;;;4226195;28;20256;-86
2022/11/02 05:57:49;;;;;;;6.55;6.00;;;7.00;99.90;;;;;;4222119;28;20077;-86
2022/11/02 06:00:10;;;;;;;6.20;5.88;;;7.10;99.90;;;;;;4231832;28;20055;-86
2022/11/02 06:02:30;;;;;;;6.88;6.25;;;7.10;99.90;;;;;;4220914;28;20062;-86
2022/11/02 06:04:50;;;;;;;6.32;6.07;;;7.20;99.90;;;;;;4226184;28;20059;-86
2022/11/02 06:07:10;;;;;;;7.53;6.75;;;7.10;99.90;;;;;;4226209;28;20398;-86
2022/11/02 06:09:30;;;;;;;6.40;6.20;;;7.10;99.90;;;;;;4223640;28;20043;-86
2022/11/02 06:11:49;;;;;;;7.03;6.65;;;7.00;99.90;;;;;;4224038;28;20361;-86
2022/11/02 06:14:09;;;;;;;7.10;6.57;;;7.00;99.90;;;;;;4229200;28;20047;-86
2022/11/02 06:16:30;;;;;;;10.02;6.47;;;7.20;99.90;;;;;;4223054;28;20059;-86
2022/11/02 06:18:50;;;;;;;6.95;6.38;;;7.30;99.90;;;;;;4217586;28;20389;-86
2022/11/02 06:21:10;;;;;;;6.30;6.03;;;7.20;99.90;;;;;;4222539;28;20054;-86
2022/11/02 06:23:30;;;;;;;6.97;6.60;;;7.20;99.90;;;;;;4231139;28;20057;-85
2022/11/02 06:25:56;;;;;;;8.48;8.10;;;7.10;99.90;;;;;;4223713;28;20086;-86
2022/11/02 06:28:15;;;;;;;9.93;8.98;;;7.00;99.90;;;;;;4235451;28;20239;-86
2022/11/02 06:30:35;;;;;;;9.25;8.57;;;6.90;99.90;;;;;;4222695;28;20047;-86
2022/11/02 06:32:55;;;;;;;10.38;9.77;;;6.80;99.90;;;;;;4230485;28;20043;-86
2022/11/02 06:35:17;;;;;;;10.82;9.98;;;6.80;99.90;;;;;;4233398;28;20043;-86
2022/11/02 06:37:36;;;;;;;12.18;10.27;;;6.70;99.90;;;;;;4217040;28;20396;-85
2022/11/02 06:39:56;;;;;;;11.73;10.93;;;6.70;99.90;;;;;;4212533;28;20281;-85
2022/11/02 06:42:16;;;;;;;14.25;11.95;;;6.70;99.90;;;;;;4222728;28;20265;-85
2022/11/02 06:44:35;;;;;;;12.23;11.05;;;6.60;99.90;;;;;;4232411;28;20146;-85
2022/11/02 06:46:55;;;;;;;11.80;10.88;;;6.50;99.90;;;;;;4222652;28;20111;-85
2022/11/02 06:49:15;;;;;;;12.50;10.18;;;6.50;99.90;;;;;;4229310;28;20047;-85
2022/11/02 06:51:34;;;;;;;11.52;10.73;;;6.60;99.90;;;;;;4221016;28;20061;-85
2022/11/02 06:53:55;;;;;;;13.73;12.70;;;6.50;99.90;;;;;;4219095;28;20077;-85
2022/11/02 06:56:15;;;;;;;14.65;13.30;;;6.50;99.90;;;;;;4233304;28;20078;-85
2022/11/02 06:58:35;;;;;;;11.65;10.48;;;6.50;99.90;;;;;;4218876;28;20051;-85
2022/11/02 07:01:00;;;;;;;12.10;9.15;;;6.50;99.90;;;;;;4232768;28;20235;-83
2022/11/02 07:03:20;;;;;;;9.35;8.85;;;6.60;99.90;;;;;;4215476;28;20326;-83
2022/11/02 07:05:40;;;;;;;9.95;9.10;;;6.80;99.90;;;;;;4216862;28;20048;-83
2022/11/02 07:07:59;;;;;;;7.43;7.07;;;6.90;99.90;;;;;;4228326;28;20047;-83
2022/11/02 07:10:19;;;;;;;6.95;6.68;;;7.10;99.90;;;;;;4222525;28;20097;-83
2022/11/02 07:12:39;;;;;;;7.55;6.97;;;7.20;99.90;;;;;;4222120;28;20070;-83
2022/11/02 07:14:59;;;;;;;15.68;14.50;;;7.40;99.90;;;;;;4231529;28;20054;-83
2022/11/02 07:17:19;;;;;;;12.85;12.02;;;7.40;99.90;;;;;;4227433;28;20063;-83
2022/11/02 07:19:39;;;;;;;12.20;11.57;;;7.50;99.90;;;;;;4224372;28;20258;-83
2022/11/02 07:21:59;;;;;;;7.15;6.85;;;7.60;99.90;;;;;;4224127;28;20418;-83
2022/11/02 07:24:19;;;;;;;6.47;6.28;;;7.70;99.90;;;;;;4229113;28;20239;-83
2022/11/02 07:26:39;;;;;;;6.10;5.70;;;7.80;99.90;;;;;;4223408;28;20043;-83
2022/11/02 07:28:59;;;;;;;5.35;5.05;;;7.80;99.90;;;;;;4223575;28;20046;-83
2022/11/02 07:31:19;;;;;;;3.95;3.75;;;7.80;99.90;;;;;;4216686;28;20074;-83
2022/11/02 07:33:39;;;;;;;4.82;4.70;;;7.90;99.90;;;;;;4228900;28;20042;-83
2022/11/02 07:36:02;;;;;;;6.30;4.65;;;7.90;99.90;;;;;;4225277;28;20389;-83
2022/11/02 07:38:21;;;;;;;4.13;3.97;;;8.00;99.90;;;;;;4215277;28;20386;-83
2022/11/02 07:40:41;;;;;;;4.28;3.97;;;8.10;99.90;;;;;;4224266;28;20046;-83
2022/11/02 07:43:01;;;;;;;4.25;4.05;;;8.20;99.90;;;;;;4222362;28;20286;-83
2022/11/02 07:45:23;;;;;;;5.90;4.43;;;8.20;99.90;;;;;;4227948;28;20050;-83
2022/11/02 07:47:46;;;;;;;4.68;4.47;;;8.30;99.90;;;;;;4219282;28;20036;-83
2022/11/02 07:50:06;;;;;;;5.03;4.70;;;8.40;99.90;;;;;;4227643;28;20085;-83
2022/11/02 07:52:26;;;;;;;5.22;4.82;;;8.40;99.90;;;;;;4227105;28;20051;-83
2022/11/02 07:54:46;;;;;;;8.70;7.68;;;8.50;99.90;;;;;;4226612;28;20382;-83
2022/11/02 07:57:05;;;;;;;7.13;6.80;;;8.60;99.90;;;;;;4221124;28;20040;-83
2022/11/02 07:59:25;;;;;;;6.10;5.85;;;8.70;99.90;;;;;;4224278;28;20149;-83
2022/11/02 08:01:44;;;;;;;7.03;6.35;;;8.80;99.90;;;;;;4225832;28;20078;-83
2022/11/02 08:04:04;;;;;;;7.18;6.57;;;8.90;99.90;;;;;;4221400;28;20100;-83
2022/11/02 08:06:24;;;;;;;7.88;7.30;;;9.00;99.90;;;;;;4222312;28;20043;-83
2022/11/02 08:08:45;;;;;;;6.10;5.80;;;9.00;99.90;;;;;;4222456;28;20051;-83
2022/11/02 08:11:06;;;;;;;6.53;5.95;;;9.10;99.90;;;;;;4220578;28;20077;-83
2022/11/02 08:13:26;;;;;;;5.50;5.05;;;9.20;99.90;;;;;;4225696;28;20047;-83
2022/11/02 08:15:51;;;;;;;5.65;5.32;;;9.30;99.90;;;;;;4220149;28;20043;-83
2022/11/02 08:18:15;;;;;;;6.07;5.63;;;9.40;99.90;;;;;;4215080;28;20043;-83
2022/11/02 08:20:36;;;;;;;4.32;4.18;;;9.40;99.90;;;;;;4217248;28;20051;-83
2022/11/02 08:22:56;;;;;;;4.35;3.90;;;9.40;99.90;;;;;;4224311;28;20294;-83
2022/11/02 08:25:16;;;;;;;4.75;4.38;;;9.60;99.90;;;;;;4231220;28;20097;-84
2022/11/02 08:27:36;;;;;;;4.68;4.38;;;9.60;99.90;;;;;;4220127;28;20043;-84
2022/11/02 08:29:56;;;;;;;7.93;5.70;;;9.60;99.90;;;;;;4233971;28;20050;-84
2022/11/02 08:32:16;;;;;;;6.10;5.68;;;9.80;99.90;;;;;;4224041;28;20417;-84
2022/11/02 08:34:36;;;;;;;5.80;5.30;;;9.90;99.90;;;;;;4223619;28;20051;-84
2022/11/02 08:36:56;;;;;;;5.43;5.25;;;10.00;99.90;;;;;;4210283;28;20103;-83
2022/11/02 08:39:16;;;;;;;5.35;5.20;;;10.10;99.90;;;;;;4212626;28;20040;-83
2022/11/02 08:41:38;;;;;;;5.00;4.75;;;10.20;99.90;;;;;;4229969;28;20055;-83
2022/11/02 08:43:58;;;;;;;6.05;5.47;;;10.20;99.90;;;;;;4230935;28;20054;-83
2022/11/02 08:46:18;;;;;;;6.47;5.72;;;10.30;99.90;;;;;;4222586;28;20473;-83
2022/11/02 08:48:38;;;;;;;4.38;4.07;;;10.40;99.90;;;;;;4223433;28;20350;-83
2022/11/02 08:50:57;;;;;;;5.43;4.40;;;10.60;99.90;;;;;;4220085;28;20331;-83
2022/11/02 08:53:17;;;;;;;8.07;4.93;;;10.70;99.90;;;;;;4229968;28;20374;-83
2022/11/02 08:55:37;;;;;;;4.32;4.03;;;10.70;99.90;;;;;;4212111;28;20090;-84
2022/11/02 08:57:58;;;;;;;4.57;4.35;;;10.80;99.90;;;;;;4216968;28;20082;-84
2022/11/02 09:00:20;;;;;;;3.10;2.90;;;10.90;99.90;;;;;;4230731;28;20042;-84
2022/11/02 09:02:41;;;;;;;3.58;3.38;;;11.00;99.90;;;;;;4216291;28;20274;-84
2022/11/02 09:05:00;;;;;;;3.50;3.40;;;11.10;99.90;;;;;;4221391;28;20242;-84
2022/11/02 09:07:20;;;;;;;2.75;2.65;;;11.20;99.90;;;;;;4235092;28;20062;-83
2022/11/02 09:09:40;;;;;;;4.53;4.43;;;11.40;99.90;;;;;;4234530;28;20089;-84
2022/11/02 09:12:00;;;;;;;6.53;5.95;;;11.60;99.90;;;;;;4222311;28;20124;-84
2022/11/02 09:14:20;;;;;;;14.55;13.38;;;11.80;99.90;;;;;;4213417;28;20068;-84
2022/11/02 09:16:40;;;;;;;6.30;5.93;;;11.90;99.90;;;;;;4226839;28;20235;-84
2022/11/02 09:19:01;;;;;;;3.50;2.85;;;12.10;99.90;;;;;;4220970;28;20081;-84
2022/11/02 09:21:20;;;;;;;3.70;2.50;;;12.20;99.90;;;;;;4223969;28;20078;-84
2022/11/02 09:23:40;;;;;;;2.35;2.25;;;12.30;99.90;;;;;;4224346;28;20051;-84
2022/11/02 09:26:00;;;;;;;3.67;3.40;;;12.40;99.90;;;;;;4235290;28;20141;-84
2022/11/02 09:28:20;;;;;;;2.70;2.58;;;12.50;99.90;;;;;;4226386;28;20047;-84
2022/11/02 09:30:41;;;;;;;2.22;2.03;;;12.60;99.90;;;;;;4223420;28;20051;-84
2022/11/02 09:33:03;;;;;;;6.43;2.65;;;12.70;99.90;;;;;;4215593;28;20081;-84
2022/11/02 09:35:25;;;;;;;2.85;2.72;;;12.90;99.90;;;;;;4225172;28;20098;-84
2022/11/02 09:37:45;;;;;;;3.22;3.00;;;13.10;99.90;;;;;;4232803;28;20055;-84
2022/11/02 09:40:12;;;;;;;2.92;2.38;;;13.20;99.90;;;;;;4232076;28;20046;-84
2022/11/02 09:43:04;;;;;;;2.85;2.05;;;13.40;99.90;;;;;;4223513;28;20055;-84
2022/11/02 09:45:26;;;;;;;2.85;1.92;;;13.50;99.90;;;;;;4233658;28;20047;-84
2022/11/02 09:48:25;;;;;;;2.10;2.10;;;13.60;99.90;;;;;;4225283;28;20043;-84
2022/11/02 09:51:12;;;;;;;1.55;1.55;;;13.70;99.90;;;;;;4212610;28;20411;-84
2022/11/02 09:53:45;;;;;;;2.20;1.38;;;13.90;99.90;;;;;;4227988;28;20050;-84
2022/11/02 09:56:07;;;;;;;2.17;2.10;;;13.90;99.90;;;;;;4223794;28;20402;-84
2022/11/02 09:58:42;;;;;;;1.98;1.88;;;14.10;99.90;;;;;;4219319;28;20065;-84
2022/11/02 10:01:25;;;;;;;2.47;2.38;;;14.30;99.90;;;;;;4229583;28;20072;-85
2022/11/02 10:03:58;;;;;;;4.97;1.80;;;14.40;99.90;;;;;;4216836;28;20055;-85
2022/11/02 10:06:21;;;;;;;1.80;1.70;;;14.50;99.90;;;;;;4225040;28;20043;-85
2022/11/02 10:08:41;;;;;;;1.48;1.45;;;14.80;99.90;;;;;;4226609;28;20074;-85
2022/11/02 10:11:26;;;;;;;2.75;1.42;;;15.20;99.90;;;;;;4226746;28;20046;-84
2022/11/02 10:13:59;;;;;;;1.45;1.35;;;15.30;99.90;;;;;;4220912;28;20039;-84
2022/11/02 10:16:25;;;;;;;1.77;1.67;;;15.40;99.90;;;;;;4228789;28;20051;-84
2022/11/02 10:18:48;;;;;;;1.98;1.42;;;15.40;99.90;;;;;;4229918;28;20140;-84
2022/11/02 10:21:14;;;;;;;1.33;1.23;;;15.60;99.90;;;;;;4216125;28;20282;-85
2022/11/02 10:23:48;;;;;;;2.13;1.73;;;15.70;99.90;;;;;;4230626;28;20050;-85
2022/11/02 10:26:17;;;;;;;2.97;1.50;;;15.90;99.90;;;;;;4217388;28;20062;-85
2022/11/02 10:28:40;;;;;;;1.63;1.52;;;16.00;99.90;;;;;;4227366;28;20086;-85
2022/11/02 10:31:02;;;;;;;2.47;1.30;;;16.30;99.90;;;;;;4211746;28;20050;-84
2022/11/02 10:33:27;;;;;;;1.15;1.10;;;16.50;99.90;;;;;;4226470;28;20044;-84
2022/11/02 10:35:57;;;;;;;3.00;1.20;;;16.90;99.90;;;;;;4226908;28;20063;-84
2022/11/02 10:38:43;;;;;;;2.40;1.10;;;17.00;99.90;;;;;;4216190;28;20066;-84
2022/11/02 10:41:13;;;;;;;3.22;1.58;;;17.30;99.90;;;;;;4227634;28;20051;-84
2022/11/02 10:43:45;;;;;;;1.80;1.23;;;17.50;99.90;;;;;;4224842;28;20043;-84
2022/11/02 10:46:22;;;;;;;2.25;1.35;;;17.60;99.90;;;;;;4225423;28;20046;-84
2022/11/02 10:48:54;;;;;;;5.72;1.67;;;17.60;99.90;;;;;;4235352;28;20227;-84
2022/11/02 10:51:16;;;;;;;1.35;1.25;;;17.60;99.90;;;;;;4224615;28;20070;-84
2022/11/02 10:53:40;;;;;;;4.75;1.35;;;17.70;99.90;;;;;;4224323;28;20077;-84
2022/11/02 10:56:24;;;;;;;1.48;1.38;;;17.90;99.90;;;;;;4223578;28;20086;-85
2022/11/02 10:59:17;;;;;;;1.63;1.20;;;18.30;99.90;;;;;;4237414;28;20058;-85
2022/11/02 11:01:43;;;;;;;1.10;1.10;;;18.30;99.90;;;;;;4233881;28;20051;-85
2022/11/02 11:04:05;;;;;;;1.40;1.30;;;18.40;99.90;;;;;;4229311;28;20235;-85
2022/11/02 11:06:42;;;;;;;1.35;1.10;;;18.30;99.90;;;;;;4217003;28;20047;-85
2022/11/02 11:09:05;;;;;;;3.42;1.10;;;18.70;99.90;;;;;;4232503;28;20137;-85
2022/11/02 11:11:32;;;;;;;3.58;1.10;;;19.00;99.90;;;;;;4217239;28;20440;-85
2022/11/02 11:14:04;;;;;;;2.05;1.00;;;19.10;99.90;;;;;;4220767;28;20099;-85
2022/11/02 11:16:48;;;;;;;1.50;1.00;;;19.20;99.90;;;;;;4231579;28;20276;-85
2022/11/02 11:19:38;;;;;;;1.02;1.02;;;19.20;99.90;;;;;;4211040;28;20135;-85
2022/11/02 11:22:01;;;;;;;0.88;0.88;;;19.30;99.90;;;;;;4228924;28;20063;-85
2022/11/02 11:24:30;;;;;;;1.00;1.00;;;19.60;99.90;;;;;;4215542;28;20055;-85
2022/11/02 11:27:01;;;;;;;0.93;0.93;;;19.50;99.90;;;;;;4230892;28;20286;-85
2022/11/02 11:29:22;;;;;;;1.05;0.90;;;19.60;99.90;;;;;;4232455;28;20047;-85
2022/11/02 11:31:41;;;;;;;0.85;0.85;;;19.60;99.90;;;;;;4223769;28;20330;-85
2022/11/02 11:34:02;;;;;;;0.90;0.90;;;19.70;99.90;;;;;;4236030;28;20084;-84
2022/11/02 11:36:29;;;;;;;2.78;1.08;;;19.70;99.90;;;;;;4223283;28;20050;-85
2022/11/02 11:38:51;;;;;;;2.38;0.80;;;19.70;99.90;;;;;;4213965;28;20035;-85
2022/11/02 11:41:11;;;;;;;1.02;1.00;;;19.60;99.90;;;;;;4217346;28;20390;-85
2022/11/02 11:43:37;;;;;;;2.85;0.90;;;20.10;99.90;;;;;;4223029;28;20043;-85
2022/11/02 11:46:02;;;;;;;1.95;0.90;;;20.00;99.90;;;;;;4219929;28;20055;-85
2022/11/02 11:48:40;;;;;;;1.08;1.00;;;20.00;99.90;;;;;;4224221;28;20035;-85
2022/11/02 11:51:02;;;;;;;1.13;0.90;;;19.90;98.30;;;;;;4232362;28;20067;-86
2022/11/02 11:53:23;;;;;;;;;;;19.90;98.50;;;;;;4233664;28;20043;-86
2022/11/02 11:55:54;;;;;;;1.65;1.00;;;19.70;98.60;;;;;;4223928;28;19957;-86
2022/11/02 11:58:25;;;;;;;1.10;1.00;;;20.20;99.30;;;;;;4220865;28;20061;-86
2022/11/02 12:01:00;;;;;;;1.20;1.10;;;20.20;98.70;;;;;;4222691;28;20043;-87
2022/11/02 12:03:25;;;;;;;4.75;1.10;;;20.20;99.90;;;;;;4229763;28;20094;-87
2022/11/02 12:05:49;;;;;;;2.05;1.58;;;20.20;97.50;;;;;;4231837;28;20080;-87
2022/11/02 12:08:12;;;;;;;1.92;1.83;;;20.60;97.80;;;;;;4221403;28;20091;-87
2022/11/02 12:10:51;;;;;;;2.88;2.67;;;20.70;96.30;;;;;;4219480;28;20047;-87
2022/11/02 12:13:20;;;;;;;1.88;1.77;;;20.50;97.30;;;;;;4210909;28;20047;-87
2022/11/02 12:15:50;;;;;;;1.42;1.33;;;20.60;95.60;;;;;;4224066;28;20043;-87
2022/11/02 12:18:27;;;;;;;0.93;0.90;;;20.60;94.80;;;;;;4213565;28;20377;-87
2022/11/02 12:21:06;;;;;;;0.80;0.80;;;20.60;94.10;;;;;;4228300;28;20260;-87
2022/11/02 12:24:11;;;;;;;0.80;0.80;;;20.90;95.30;;;;;;4221967;28;20047;-87
2022/11/02 12:26:43;;;;;;;2.15;0.70;;;20.70;93.80;;;;;;4140272;28;20424;-87
2022/11/02 12:29:30;;;;;;;0.80;0.80;;;20.50;93.00;;;;;;4142832;28;20195;-87
2022/11/02 12:32:28;;;;;;;0.90;0.90;;;20.50;93.70;;;;;;4144479;28;20372;-87
2022/11/02 12:34:56;;;;;;;0.80;0.80;;;20.80;94.00;;;;;;4121704;28;20081;-87
2022/11/02 12:37:59;;;;;;;0.90;0.90;;;20.80;92.80;;;;;;4154396;28;20096;-87
2022/11/02 12:40:40;;;;;;;1.05;0.80;;;20.50;91.70;;;;;;4144483;28;20048;-87
2022/11/02 12:43:03;;;;;;;0.80;0.80;;;20.50;91.60;;;;;;4139908;28;20049;-87
2022/11/02 12:45:54;;;;;;;1.70;0.70;;;20.80;92.30;;;;;;4150744;28;20045;-87
2022/11/02 12:48:29;;;;;;;0.80;0.80;;;20.80;92.20;;;;;;4154681;28;20134;-87
2022/11/02 12:50:58;;;;;;;0.70;0.70;;;20.80;91.30;;;;;;4140176;28;20372;-87
2022/11/02 12:53:39;;;;;;;0.85;0.80;;;21.10;91.00;;;;;;4151677;28;20202;-87